createdAt,value
2022-08-10T00:00:46.645Z,99.90
2022-08-10T00:03:21.604Z,99.90
2022-08-10T00:05:57.968Z,99.90
2022-08-10T00:08:32.600Z,99.90
2022-08-10T00:11:15.415Z,99.90
2022-08-10T00:13:52.155Z,99.90
2022-08-10T00:16:26.155Z,99.90
2022-08-10T00:19:01.134Z,99.90
2022-08-10T00:21:35.403Z,99.90
2022-08-10T00:24:11.423Z,99.90
2022-08-10T00:27:58.568Z,99.90
2022-08-10T00:29:39.363Z,99.90
2022-08-10T00:32:14.503Z,99.90
2022-08-10T00:34:50.130Z,99.90
2022-08-10T00:37:24.341Z,99.90
2022-08-10T00:39:59.637Z,99.90
2022-08-10T00:42:36.949Z,99.90
2022-08-10T00:45:12.537Z,99.90
2022-08-10T00:47:47.893Z,99.90
2022-08-10T00:50:22.587Z,99.90
2022-08-10T00:52:57.180Z,99.90
2022-08-10T00:57:14.300Z,99.90
2022-08-10T00:58:32.847Z,99.90
2022-08-10T01:01:11.679Z,99.90
2022-08-10T01:04:39.826Z,99.90
2022-08-10T01:07:09.761Z,99.90
2022-08-10T01:09:55.804Z,99.90
2022-08-10T01:12:47.134Z,99.90
2022-08-10T01:15:28.315Z,99.90
2022-08-10T01:18:05.916Z,99.90
2022-08-10T01:20:36.351Z,99.90
2022-08-10T01:23:37.379Z,99.90
2022-08-10T01:26:32.012Z,99.90
2022-08-10T01:29:33.211Z,99.90
2022-08-10T01:32:08.907Z,99.90
2022-08-10T01:34:45.257Z,99.90
2022-08-10T01:37:20.432Z,99.90
2022-08-10T01:39:55.406Z,99.90
2022-08-10T01:42:30.573Z,99.90
2022-08-10T01:45:09.392Z,99.90
2022-08-10T01:47:59.605Z,99.90
2022-08-10T01:50:58.976Z,99.90
2022-08-10T01:53:41.373Z,99.90
2022-08-10T01:56:17.001Z,99.90
2022-08-10T01:58:53.257Z,99.90
2022-08-10T02:01:31.674Z,99.90
2022-08-10T02:04:08.549Z,99.90
2022-08-10T02:06:46.933Z,99.90
2022-08-10T02:09:17.400Z,99.90
2022-08-10T02:12:07.735Z,99.90
2022-08-10T02:14:45.104Z,99.90
2022-08-10T02:17:59.260Z,99.90
2022-08-10T02:20:20.091Z,99.90
2022-08-10T02:22:56.582Z,99.90
2022-08-10T02:25:41.067Z,99.90
2022-08-10T02:28:27.212Z,99.90
2022-08-10T02:31:07.027Z,99.90
2022-08-10T02:33:57.233Z,99.90
2022-08-10T02:36:33.083Z,99.90
2022-08-10T02:39:08.626Z,99.90
2022-08-10T02:45:02.221Z,99.90
2022-08-10T02:45:24.706Z,99.90
2022-08-10T02:47:52.131Z,99.90
2022-08-10T02:50:32.315Z,99.90
2022-08-10T02:53:08.022Z,99.90
2022-08-10T02:56:08.501Z,99.90
2022-08-10T02:58:42.458Z,99.90
2022-08-10T03:01:20.284Z,99.90
2022-08-10T03:03:57.579Z,99.90
2022-08-10T03:06:38.081Z,99.90
2022-08-10T03:09:15.109Z,99.90
2022-08-10T03:12:35.315Z,99.90
2022-08-10T03:14:42.649Z,99.90
2022-08-10T03:17:17.849Z,99.90
2022-08-10T03:20:34.465Z,99.90
2022-08-10T03:22:48.646Z,99.90
2022-08-10T03:25:26.991Z,99.90
2022-08-10T03:28:01.951Z,99.90
2022-08-10T03:30:36.764Z,99.90
2022-08-10T03:33:11.832Z,99.90
2022-08-10T03:36:43.889Z,99.90
2022-08-10T03:38:40.925Z,99.90
2022-08-10T03:41:18.546Z,99.90
2022-08-10T03:43:53.761Z,99.90
2022-08-10T03:46:28.618Z,99.90
2022-08-10T03:49:05.742Z,99.90
2022-08-10T03:51:40.846Z,99.90
2022-08-10T03:54:15.617Z,99.90
2022-08-10T03:56:53.377Z,99.90
2022-08-10T03:59:28.299Z,99.90
2022-08-10T04:02:43.942Z,99.90
2022-08-10T04:04:56.401Z,99.90
2022-08-10T04:07:35.588Z,99.90
2022-08-10T04:10:13.052Z,99.90
2022-08-10T04:12:50.973Z,99.90
2022-08-10T04:15:26.151Z,99.90
2022-08-10T04:18:05.908Z,99.90
2022-08-10T04:20:43.089Z,99.90
2022-08-10T04:23:19.032Z,99.90
2022-08-10T04:25:54.391Z,99.90
2022-08-10T04:28:30.937Z,99.90
2022-08-10T04:31:05.125Z,99.90
2022-08-10T04:33:40.354Z,99.90
2022-08-10T04:36:14.437Z,99.90
2022-08-10T04:38:49.496Z,99.90
2022-08-10T04:41:25.066Z,99.90
2022-08-10T04:44:02.384Z,99.90
2022-08-10T04:46:55.499Z,99.90
2022-08-10T04:49:54.255Z,99.90
2022-08-10T04:52:27.373Z,99.90
2022-08-10T04:55:02.355Z,99.90
2022-08-10T04:57:36.600Z,99.90
2022-08-10T05:00:19.325Z,99.90
2022-08-10T05:02:54.769Z,99.90
2022-08-10T05:05:29.366Z,99.90
2022-08-10T05:08:04.646Z,99.90
2022-08-10T05:10:39.965Z,99.90
2022-08-10T05:13:14.599Z,99.90
2022-08-10T05:15:53.855Z,99.90
2022-08-10T05:18:28.923Z,99.90
2022-08-10T05:21:03.181Z,99.90
2022-08-10T05:23:37.875Z,99.90
2022-08-10T05:26:12.408Z,99.90
2022-08-10T05:28:46.643Z,99.90
2022-08-10T05:31:24.800Z,99.90
2022-08-10T05:34:00.109Z,99.90
2022-08-10T05:36:34.882Z,99.90
2022-08-10T05:39:09.487Z,99.90
2022-08-10T05:41:47.747Z,99.90
2022-08-10T05:44:24.677Z,99.90
2022-08-10T05:47:02.710Z,99.90
2022-08-10T05:49:37.866Z,99.90
2022-08-10T05:52:15.312Z,99.90
2022-08-10T05:54:50.496Z,99.90
2022-08-10T05:57:25.180Z,99.90
2022-08-10T06:00:31.038Z,99.90
2022-08-10T06:03:02.718Z,99.90
2022-08-10T06:05:38.667Z,99.90
2022-08-10T06:08:18.252Z,99.90
2022-08-10T06:12:23.599Z,99.90
2022-08-10T06:14:13.724Z,99.90
2022-08-10T06:16:51.845Z,99.90
2022-08-10T06:19:32.304Z,99.90
2022-08-10T06:22:09.325Z,99.90
2022-08-10T06:25:12.288Z,99.90
2022-08-10T06:27:38.837Z,99.90
2022-08-10T06:30:20.028Z,99.90
2022-08-10T06:32:56.118Z,99.90
2022-08-10T06:35:35.550Z,99.90
2022-08-10T06:38:12.970Z,99.90
2022-08-10T06:40:48.690Z,99.90
2022-08-10T06:43:23.968Z,99.90
2022-08-10T06:46:06.802Z,99.90
2022-08-10T06:48:44.965Z,99.90
2022-08-10T06:51:29.358Z,99.90
2022-08-10T06:54:04.698Z,99.90
2022-08-10T06:56:55.839Z,99.90
2022-08-10T06:59:36.861Z,99.90
2022-08-10T07:02:12.248Z,99.90
2022-08-10T07:04:47.941Z,99.90
2022-08-10T07:07:27.257Z,99.90
2022-08-10T07:10:03.769Z,99.90
2022-08-10T07:12:42.203Z,99.90
2022-08-10T07:15:17.671Z,99.90
2022-08-10T07:17:52.016Z,99.90
2022-08-10T07:20:27.190Z,99.90
2022-08-10T07:23:55.896Z,99.90
2022-08-10T07:25:59.382Z,99.90
2022-08-10T07:28:33.628Z,99.90
2022-08-10T07:31:29.586Z,99.90
2022-08-10T07:34:06.803Z,99.90
2022-08-10T07:36:40.768Z,99.90
2022-08-10T07:39:18.046Z,99.90
2022-08-10T07:42:13.284Z,99.90
2022-08-10T07:44:48.510Z,99.90
2022-08-10T07:47:52.888Z,99.90
2022-08-10T07:50:22.546Z,99.90
2022-08-10T07:52:58.793Z,99.90
2022-08-10T07:56:04.329Z,99.90
2022-08-10T07:58:32.295Z,99.90
2022-08-10T08:01:07.440Z,99.90
2022-08-10T08:03:43.011Z,99.40
2022-08-10T08:06:18.113Z,99.20
2022-08-10T08:08:52.168Z,99.50
2022-08-10T08:11:29.177Z,99.50
2022-08-10T08:14:03.088Z,98.70
2022-08-10T08:16:38.486Z,98.50
2022-08-10T08:19:37.596Z,98.10
2022-08-10T08:24:30.563Z,97.40
2022-08-10T08:25:02.740Z,97.10
2022-08-10T08:27:41.141Z,96.40
2022-08-10T08:30:27.764Z,95.90
2022-08-10T08:33:03.216Z,96.30
2022-08-10T08:35:37.856Z,96.60
2022-08-10T08:38:31.551Z,96.50
2022-08-10T08:41:11.155Z,95.80
2022-08-10T08:43:57.035Z,95.40
2022-08-10T08:46:34.270Z,93.90
2022-08-10T08:50:07.929Z,94.70
2022-08-10T08:52:42.982Z,93.80
2022-08-10T08:56:04.292Z,93.30
2022-08-10T08:58:33.733Z,94.00
2022-08-10T09:01:21.732Z,93.90
2022-08-10T09:04:19.841Z,93.80
2022-08-10T09:07:59.404Z,93.50
2022-08-10T09:10:08.722Z,93.20
2022-08-10T09:12:48.477Z,93.50
2022-08-10T09:15:39.712Z,93.60
2022-08-10T09:18:23.013Z,93.40
2022-08-10T09:21:04.444Z,92.70
2022-08-10T09:24:01.510Z,91.10
2022-08-10T09:26:39.618Z,91.00
2022-08-10T09:29:18.499Z,89.60
2022-08-10T09:36:16.276Z,89.50
2022-08-10T09:36:20.490Z,89.30
2022-08-10T09:38:09.182Z,88.10
2022-08-10T09:40:59.695Z,88.70
2022-08-10T09:43:48.016Z,87.70
2022-08-10T09:46:36.169Z,87.30
2022-08-10T09:49:25.063Z,86.60
2022-08-10T09:52:13.555Z,86.00
2022-08-10T09:54:57.612Z,86.80
2022-08-10T09:57:44.876Z,86.70
2022-08-10T10:00:22.910Z,86.40
2022-08-10T10:03:06.895Z,87.60
2022-08-10T10:05:52.256Z,86.10
2022-08-10T10:08:33.478Z,85.80
2022-08-10T10:11:13.901Z,84.90
2022-08-10T10:14:04.400Z,84.40
2022-08-10T10:16:49.319Z,84.80
2022-08-10T10:19:30.738Z,85.90
2022-08-10T10:22:17.435Z,84.50
2022-08-10T10:24:55.998Z,83.30
2022-08-10T10:27:38.148Z,88.00
2022-08-10T10:30:14.419Z,86.10
2022-08-10T10:32:58.360Z,84.70
2022-08-10T10:35:38.515Z,84.10
2022-08-10T10:38:15.931Z,84.70
2022-08-10T10:40:57.077Z,82.20
2022-08-10T10:43:42.279Z,83.40
2022-08-10T10:46:25.719Z,82.60
2022-08-10T10:49:07.477Z,82.60
2022-08-10T10:51:44.520Z,83.40
2022-08-10T10:54:22.863Z,83.70
2022-08-10T10:57:04.741Z,82.60
2022-08-10T10:59:55.817Z,84.10
2022-08-10T11:02:46.671Z,83.50
2022-08-10T11:05:31.013Z,83.70
2022-08-10T11:08:06.938Z,83.30
2022-08-10T11:10:47.225Z,83.80
2022-08-10T11:14:25.727Z,83.50
2022-08-10T11:16:33.049Z,85.20
2022-08-10T11:19:16.449Z,85.10
2022-08-10T11:22:01.045Z,83.60
2022-08-10T11:24:46.921Z,86.80
2022-08-10T11:27:32.858Z,86.50
2022-08-10T11:30:14.711Z,85.10
2022-08-10T11:33:07.565Z,85.40
2022-08-10T11:35:48.613Z,85.60
2022-08-10T11:38:36.878Z,86.20
2022-08-10T11:42:09.983Z,85.50
2022-08-10T11:44:17.366Z,85.40
2022-08-10T11:46:59.832Z,84.70
2022-08-10T11:49:36.243Z,84.60
2022-08-10T11:52:13.800Z,85.90
2022-08-10T11:54:53.618Z,86.70
2022-08-10T11:57:54.458Z,86.50
2022-08-10T12:00:24.321Z,87.40
2022-08-10T12:03:04.508Z,88.10
2022-08-10T12:05:52.632Z,88.30
2022-08-10T12:10:07.420Z,84.30
2022-08-10T12:11:29.972Z,86.60
2022-08-10T12:14:20.686Z,84.30
2022-08-10T12:17:01.566Z,84.60
2022-08-10T12:19:59.281Z,84.80
2022-08-10T12:22:42.929Z,85.40
2022-08-10T12:25:56.797Z,85.50
2022-08-10T12:28:21.873Z,85.20
2022-08-10T12:31:18.139Z,83.80
2022-08-10T12:34:02.061Z,85.50
2022-08-10T12:36:43.463Z,84.00
2022-08-10T12:39:20.176Z,85.10
2022-08-10T12:42:00.187Z,84.40
2022-08-10T12:44:42.095Z,83.90
2022-08-10T12:47:22.821Z,85.30
2022-08-10T12:50:29.474Z,84.90
2022-08-10T12:53:04.944Z,84.60
2022-08-10T12:55:48.172Z,84.00
2022-08-10T12:58:58.191Z,84.10
2022-08-10T13:01:17.934Z,83.10
2022-08-10T13:04:23.447Z,84.40
2022-08-10T13:06:52.945Z,84.80
2022-08-10T13:09:30.559Z,84.70
2022-08-10T13:12:39.234Z,83.40
2022-08-10T13:15:25.296Z,84.10
2022-08-10T13:18:03.065Z,84.10
2022-08-10T13:20:38.992Z,84.30
2022-08-10T13:23:16.092Z,84.70
2022-08-10T13:25:57.246Z,85.30
2022-08-10T13:28:45.380Z,85.10
2022-08-10T13:32:04.037Z,85.20
2022-08-10T13:34:43.748Z,85.60
2022-08-10T13:37:21.599Z,87.10
2022-08-10T13:40:00.671Z,86.70
2022-08-10T13:42:40.409Z,86.80
2022-08-10T13:45:18.738Z,87.00
2022-08-10T13:47:57.132Z,88.50
2022-08-10T13:50:33.499Z,87.00
2022-08-10T13:53:15.272Z,88.50
2022-08-10T13:55:55.148Z,87.30
2022-08-10T13:58:36.368Z,88.10
2022-08-10T14:01:16.026Z,87.70
2022-08-10T14:03:51.535Z,87.90
2022-08-10T14:06:29.470Z,86.10
2022-08-10T14:09:06.136Z,86.30
2022-08-10T14:11:42.818Z,86.60
2022-08-10T14:14:21.872Z,88.10
2022-08-10T14:16:57.219Z,85.60
2022-08-10T14:19:34.063Z,86.80
2022-08-10T14:22:11.514Z,86.70
2022-08-10T14:24:49.568Z,86.70
2022-08-10T14:28:02.631Z,87.40
2022-08-10T14:30:43.565Z,87.40
2022-08-10T14:33:18.004Z,86.10
2022-08-10T14:36:19.683Z,84.90
2022-08-10T14:38:48.348Z,85.00
2022-08-10T14:42:03.074Z,85.30
2022-08-10T14:44:23.142Z,85.40
2022-08-10T14:47:42.303Z,86.90
2022-08-10T14:50:01.408Z,87.30
2022-08-10T14:52:39.939Z,86.70
2022-08-10T14:55:26.014Z,88.70
2022-08-10T14:58:19.868Z,88.50
2022-08-10T15:00:59.003Z,86.60
2022-08-10T15:04:00.931Z,87.30
2022-08-10T15:06:35.267Z,87.70
2022-08-10T15:09:12.597Z,85.60
2022-08-10T15:12:12.891Z,85.20
2022-08-10T15:14:51.727Z,85.10
2022-08-10T15:17:29.540Z,84.60
2022-08-10T15:20:26.528Z,85.30
2022-08-10T15:23:03.277Z,86.10
2022-08-10T15:25:40.403Z,87.00
2022-08-10T15:29:24.197Z,87.30
2022-08-10T15:31:31.649Z,87.60
2022-08-10T15:34:19.899Z,87.00
2022-08-10T15:37:39.502Z,85.80
2022-08-10T15:40:22.368Z,86.40
2022-08-10T15:43:05.521Z,86.60
2022-08-10T15:46:02.513Z,86.70
2022-08-10T15:48:44.023Z,86.50
2022-08-10T15:51:33.760Z,86.00
2022-08-10T15:54:33.426Z,86.30
2022-08-10T15:57:11.869Z,86.00
2022-08-10T15:59:48.561Z,85.40
2022-08-10T16:02:29.679Z,86.00
2022-08-10T16:05:08.157Z,86.90
2022-08-10T16:07:49.185Z,85.50
2022-08-10T16:10:30.721Z,85.50
2022-08-10T16:13:50.447Z,86.30
2022-08-10T16:16:07.704Z,88.50
2022-08-10T16:18:44.288Z,87.90
2022-08-10T16:21:19.900Z,87.50
2022-08-10T16:24:11.383Z,86.30
2022-08-10T16:26:54.401Z,85.10
2022-08-10T16:29:29.442Z,85.10
2022-08-10T16:32:05.763Z,85.30
2022-08-10T16:34:41.611Z,86.60
2022-08-10T16:37:17.511Z,86.20
2022-08-10T16:39:58.782Z,86.00
2022-08-10T16:42:43.064Z,86.20
2022-08-10T16:45:22.419Z,86.60
2022-08-10T16:47:56.850Z,87.20
2022-08-10T16:50:36.769Z,86.70
2022-08-10T16:53:14.324Z,86.70
2022-08-10T16:55:50.989Z,87.20
2022-08-10T16:58:30.825Z,87.30
2022-08-10T17:01:07.590Z,88.20
2022-08-10T17:04:07.862Z,87.90
2022-08-10T17:06:41.179Z,87.80
2022-08-10T17:09:19.381Z,88.10
2022-08-10T17:11:55.636Z,88.20
2022-08-10T17:14:34.047Z,89.10
2022-08-10T17:17:15.075Z,88.90
2022-08-10T17:19:50.449Z,89.30
2022-08-10T17:22:24.866Z,88.60
2022-08-10T17:25:05.362Z,88.90
2022-08-10T17:28:20.159Z,89.40
2022-08-10T17:30:57.407Z,89.30
2022-08-10T17:33:32.861Z,89.50
2022-08-10T17:36:10.802Z,89.30
2022-08-10T17:38:49.159Z,89.90
2022-08-10T17:41:26.897Z,90.00
2022-08-10T17:44:03.537Z,90.10
2022-08-10T17:46:44.100Z,90.10
2022-08-10T17:49:19.066Z,90.30
2022-08-10T17:51:55.547Z,90.30
2022-08-10T17:54:31.755Z,90.40
2022-08-10T17:57:22.221Z,90.50
2022-08-10T17:59:56.479Z,91.00
2022-08-10T18:02:34.045Z,91.00
2022-08-10T18:05:08.963Z,91.10
2022-08-10T18:07:47.821Z,91.30
2022-08-10T18:10:23.949Z,91.50
2022-08-10T18:12:59.430Z,91.70
2022-08-10T18:15:38.346Z,91.70
2022-08-10T18:18:23.583Z,91.50
2022-08-10T18:21:07.734Z,91.60
2022-08-10T18:23:44.170Z,91.70
2022-08-10T18:26:39.906Z,91.70
2022-08-10T18:29:18.762Z,91.90
2022-08-10T18:31:59.246Z,92.10
2022-08-10T18:34:37.201Z,92.30
2022-08-10T18:37:15.800Z,92.30
2022-08-10T18:39:52.554Z,92.50
2022-08-10T18:42:30.963Z,92.50
2022-08-10T18:45:11.014Z,92.60
2022-08-10T18:47:58.998Z,92.80
2022-08-10T18:50:39.612Z,92.90
2022-08-10T18:53:17.373Z,92.90
2022-08-10T18:56:10.049Z,93.10
2022-08-10T18:58:53.112Z,93.20
2022-08-10T19:01:45.304Z,93.20
2022-08-10T19:04:47.421Z,94.10
2022-08-10T19:07:19.679Z,94.30
2022-08-10T19:10:00.145Z,94.10
2022-08-10T19:12:45.069Z,94.20
2022-08-10T19:15:28.063Z,94.70
2022-08-10T19:18:10.157Z,95.00
2022-08-10T19:20:47.985Z,95.30
2022-08-10T19:23:43.696Z,95.10
2022-08-10T19:26:43.192Z,95.70
2022-08-10T19:30:07.892Z,96.10
2022-08-10T19:32:34.979Z,96.90
2022-08-10T19:35:12.479Z,97.10
2022-08-10T19:38:00.413Z,97.00
2022-08-10T19:40:44.329Z,97.60
2022-08-10T19:43:59.273Z,97.80
2022-08-10T19:46:28.396Z,97.70
2022-08-10T19:49:06.626Z,97.70
2022-08-10T19:51:58.707Z,98.00
2022-08-10T19:54:35.688Z,98.50
2022-08-10T19:57:14.172Z,98.70
2022-08-10T20:00:17.660Z,99.10
2022-08-10T20:03:08.108Z,99.30
2022-08-10T20:06:19.446Z,99.60
2022-08-10T20:08:54.053Z,99.80
2022-08-10T20:11:45.987Z,99.90
2022-08-10T20:14:23.599Z,99.90
2022-08-10T20:17:05.982Z,99.90
2022-08-10T20:19:53.632Z,99.90
2022-08-10T20:22:31.048Z,99.90
2022-08-10T20:25:07.255Z,99.90
2022-08-10T20:28:00.649Z,99.90
2022-08-10T20:30:37.731Z,99.90
2022-08-10T20:33:19.037Z,99.90
2022-08-10T20:35:55.624Z,99.90
2022-08-10T20:38:34.224Z,99.90
2022-08-10T20:41:18.380Z,99.90
2022-08-10T20:43:51.640Z,99.90
2022-08-10T20:46:28.912Z,99.90
2022-08-10T20:49:11.391Z,99.90
2022-08-10T20:51:58.777Z,99.90
2022-08-10T20:54:37.425Z,99.90
2022-08-10T20:58:03.853Z,99.90
2022-08-10T21:00:33.451Z,99.90
2022-08-10T21:03:09.170Z,99.90
2022-08-10T21:06:02.259Z,99.90
2022-08-10T21:08:48.284Z,99.90
2022-08-10T21:11:30.826Z,99.90
2022-08-10T21:14:15.258Z,99.90
2022-08-10T21:16:59.497Z,99.90
2022-08-10T21:19:32.821Z,99.90
2022-08-10T21:22:15.886Z,99.90
2022-08-10T21:24:53.272Z,99.90
2022-08-10T21:27:34.318Z,99.90
2022-08-10T21:30:08.559Z,99.90
2022-08-10T21:32:50.952Z,99.90
2022-08-10T21:35:36.617Z,99.90
2022-08-10T21:38:29.181Z,99.90
2022-08-10T21:41:17.507Z,99.90
2022-08-10T21:44:10.796Z,99.90
2022-08-10T21:47:01.677Z,99.90
2022-08-10T21:49:53.313Z,99.90
2022-08-10T21:52:41.427Z,99.90
2022-08-10T21:55:57.954Z,99.90
2022-08-10T21:58:49.184Z,99.90
2022-08-10T22:01:42.696Z,99.90
2022-08-10T22:04:30.118Z,99.90
2022-08-10T22:07:18.413Z,99.90
2022-08-10T22:10:07.122Z,99.90
2022-08-10T22:12:58.755Z,99.90
2022-08-10T22:16:10.056Z,99.90
2022-08-10T22:19:02.365Z,99.90
2022-08-10T22:21:45.059Z,99.90
2022-08-10T22:24:37.626Z,99.90
2022-08-10T22:27:45.912Z,99.90
2022-08-10T22:30:39.692Z,99.90
2022-08-10T22:33:33.745Z,99.90
2022-08-10T22:36:21.280Z,99.90
2022-08-10T22:39:13.463Z,99.90
2022-08-10T22:42:04.249Z,99.90
2022-08-10T22:44:52.253Z,99.90
2022-08-10T22:47:47.358Z,99.90
2022-08-10T22:50:22.573Z,99.90
2022-08-10T22:53:05.892Z,99.90
2022-08-10T22:55:53.863Z,99.90
2022-08-10T22:58:41.643Z,99.90
2022-08-10T23:01:40.684Z,99.90
2022-08-10T23:04:26.245Z,99.90
2022-08-10T23:07:13.655Z,99.90
2022-08-10T23:09:49.207Z,99.90
2022-08-10T23:12:26.464Z,99.90
2022-08-10T23:15:13.352Z,99.90
2022-08-10T23:18:04.925Z,99.90
2022-08-10T23:20:43.674Z,99.90
2022-08-10T23:23:23.356Z,99.90
2022-08-10T23:25:59.528Z,99.90
2022-08-10T23:28:39.096Z,99.90
2022-08-10T23:31:58.347Z,99.90
2022-08-10T23:34:27.065Z,99.90
2022-08-10T23:37:04.732Z,99.90
2022-08-10T23:39:40.403Z,99.90
2022-08-10T23:42:18.397Z,99.90
2022-08-10T23:44:53.960Z,99.90
2022-08-10T23:47:29.627Z,99.90
2022-08-10T23:50:07.755Z,99.90
2022-08-10T23:52:51.718Z,99.90
2022-08-10T23:55:26.999Z,99.90
2022-08-10T23:58:05.403Z,99.90
